Terminal Aerodrome Forecast
Issued by NWS Charleston, WV

Current Version | Previous Version | Graphics & Text | Print | Product List | Glossary On
Versions: 1 2 3 4 5 6 7 8 9 10 11 12 13 14 15 16 17 18 19 20 21 22 23 24 25
000
FTUS41 KRLX 250231 AAA
TAFCRW
TAF AMD
KCRW 250231Z 2503/2524 00000KT P6SM FEW250
     FM250500 00000KT 5SM BR FEW250
     FM251000 VRB03KT 1 1/2SM BR SCT001
     FM251200 00000KT 1SM BR BKN001
     FM251300 00000KT 3SM BR SCT001
     FM251400 00000KT P6SM SCT250
     FM251700 24004KT P6SM SCT050
     FM251900 24005KT P6SM BKN050=

USA.gov is the U.S. government's official web portal to all federal, state and local government web resources and services.